IBE820 LEMD-LPMA
Flight info
| Callsign | IBE820 |
|---|---|
| Flight time | 1h 59m |
| Altitude | 31000 |
| Route | CCS DCT ELVAR/N0482F410 DCT NARTA DCT RAKUN |
| Aircraft | A359/H-SDE2E3GHIJ3J4J5LM1ORWXY/LB1D1 |
Departure
| Time | 2026-04-30 19:34 |
|---|---|
| Airport | Adolfo Suárez Madrid–Barajas Airport (LEMD) |
Arrival
| Time | 2026-04-30 21:33 |
|---|---|
| Airport | Cristiano Ronaldo International Airport (LPMA) |
| Time | Latitude | Longitude | Altitude | Speed | Heading |
|---|---|---|---|---|---|
| 2026-04-30 19:16 | 40.46229 | -3.56937 | 1974 ft | 0 kts | 314° |
| 2026-04-30 19:23 | 40.46211 | -3.56913 | 1987 ft | 3 kts | 314° |
| 2026-04-30 19:24 | 40.46175 | -3.56888 | 1985 ft | 3 kts | 357° |
| 2026-04-30 19:24 | 40.46155 | -3.56890 | 1985 ft | 2 kts | 15° |
| 2026-04-30 19:24 | 40.46154 | -3.56890 | 1985 ft | 0 kts | 15° |
| 2026-04-30 19:26 | 40.46209 | -3.56848 | 1988 ft | 12 kts | 31° |
| 2026-04-30 19:26 | 40.46299 | -3.56659 | 1989 ft | 14 kts | 97° |
| 2026-04-30 19:26 | 40.46301 | -3.56528 | 1988 ft | 13 kts | 60° |
| 2026-04-30 19:27 | 40.46492 | -3.56483 | 1987 ft | 16 kts | 3° |
| 2026-04-30 19:27 | 40.46738 | -3.56468 | 1987 ft | 20 kts | 2° |
| 2026-04-30 19:28 | 40.46880 | -3.56460 | 1987 ft | 21 kts | 4° |
| 2026-04-30 19:28 | 40.47174 | -3.56535 | 1989 ft | 23 kts | 322° |
| 2026-04-30 19:29 | 40.47439 | -3.56809 | 1989 ft | 26 kts | 322° |
| 2026-04-30 19:29 | 40.47584 | -3.56955 | 1990 ft | 27 kts | 323° |
| 2026-04-30 19:30 | 40.48052 | -3.57430 | 1989 ft | 30 kts | 323° |
| 2026-04-30 19:30 | 40.48389 | -3.57771 | 1989 ft | 31 kts | 324° |
| 2026-04-30 19:31 | 40.48689 | -3.57931 | 1987 ft | 22 kts | 358° |
| 2026-04-30 19:31 | 40.48849 | -3.57936 | 1987 ft | 24 kts | 358° |
| 2026-04-30 19:31 | 40.49150 | -3.57928 | 1989 ft | 13 kts | 26° |
| 2026-04-30 19:32 | 40.49172 | -3.57816 | 1990 ft | 14 kts | 89° |
| 2026-04-30 19:32 | 40.49173 | -3.57678 | 1989 ft | 16 kts | 90° |
| 2026-04-30 19:32 | 40.49199 | -3.57553 | 1990 ft | 13 kts | 64° |
| 2026-04-30 19:32 | 40.49261 | -3.57466 | 1990 ft | 13 kts | 14° |
| 2026-04-30 19:33 | 40.49350 | -3.57464 | 1990 ft | 13 kts | 358° |
| 2026-04-30 19:33 | 40.49579 | -3.57466 | 1989 ft | 65 kts | 360° |
| 2026-04-30 19:33 | 40.50281 | -3.57471 | 1987 ft | 138 kts | 360° |
| 2026-04-30 19:33 | 40.51458 | -3.57475 | 2145 ft | 192 kts | 0° |
| 2026-04-30 19:34 | 40.52890 | -3.57479 | 2629 ft | 219 kts | 358° |
| 2026-04-30 19:34 | 40.54512 | -3.57502 | 3207 ft | 246 kts | 359° |
| 2026-04-30 19:34 | 40.58044 | -3.57520 | 4733 ft | 246 kts | 359° |
| 2026-04-30 19:35 | 40.59716 | -3.57444 | 5631 ft | 243 kts | 7° |
| 2026-04-30 19:35 | 40.61332 | -3.56793 | 6409 ft | 244 kts | 23° |
| 2026-04-30 19:35 | 40.62928 | -3.55983 | 7087 ft | 247 kts | 13° |
| 2026-04-30 19:35 | 40.64670 | -3.55715 | 7559 ft | 261 kts | 1° |
| 2026-04-30 19:36 | 40.66544 | -3.55702 | 7962 ft | 276 kts | 359° |
| 2026-04-30 19:36 | 40.68481 | -3.55962 | 8581 ft | 282 kts | 346° |
| 2026-04-30 19:36 | 40.71572 | -3.58931 | 10007 ft | 285 kts | 296° |
| 2026-04-30 19:37 | 40.72033 | -3.61469 | 10494 ft | 294 kts | 269° |
| 2026-04-30 19:37 | 40.71832 | -3.64224 | 10790 ft | 310 kts | 261° |
| 2026-04-30 19:37 | 40.71493 | -3.67103 | 11088 ft | 326 kts | 261° |
| 2026-04-30 19:37 | 40.71154 | -3.70120 | 11475 ft | 337 kts | 261° |
| 2026-04-30 19:38 | 40.70828 | -3.73202 | 12048 ft | 342 kts | 261° |
| 2026-04-30 19:38 | 40.70509 | -3.76316 | 12665 ft | 345 kts | 261° |
| 2026-04-30 19:38 | 40.70191 | -3.79461 | 13281 ft | 347 kts | 261° |
| 2026-04-30 19:38 | 40.69875 | -3.82624 | 13923 ft | 350 kts | 261° |
| 2026-04-30 19:39 | 40.69555 | -3.85815 | 14463 ft | 353 kts | 261° |
| 2026-04-30 19:39 | 40.69232 | -3.89033 | 15006 ft | 356 kts | 261° |
| 2026-04-30 19:39 | 40.68906 | -3.92284 | 15575 ft | 359 kts | 261° |
| 2026-04-30 19:39 | 40.68579 | -3.95551 | 16115 ft | 361 kts | 261° |
| 2026-04-30 19:40 | 40.68247 | -3.98847 | 16689 ft | 364 kts | 261° |
| 2026-04-30 19:40 | 40.67914 | -4.02161 | 17231 ft | 367 kts | 261° |
| 2026-04-30 19:40 | 40.67576 | -4.05501 | 17777 ft | 369 kts | 261° |
| 2026-04-30 19:40 | 40.67235 | -4.08871 | 18313 ft | 372 kts | 261° |
| 2026-04-30 19:41 | 40.66891 | -4.12262 | 18773 ft | 375 kts | 261° |
| 2026-04-30 19:41 | 40.66542 | -4.15684 | 19192 ft | 378 kts | 261° |
| 2026-04-30 19:41 | 40.66190 | -4.19131 | 19615 ft | 381 kts | 261° |
| 2026-04-30 19:41 | 40.65834 | -4.22606 | 20052 ft | 385 kts | 261° |
| 2026-04-30 19:42 | 40.65478 | -4.26065 | 20496 ft | 388 kts | 261° |
| 2026-04-30 19:42 | 40.65114 | -4.29594 | 20909 ft | 391 kts | 261° |
| 2026-04-30 19:42 | 40.64745 | -4.33159 | 21322 ft | 394 kts | 261° |
| 2026-04-30 19:42 | 40.64371 | -4.36744 | 21739 ft | 397 kts | 261° |
| 2026-04-30 19:43 | 40.63994 | -4.40360 | 22128 ft | 400 kts | 261° |
| 2026-04-30 19:43 | 40.63613 | -4.44008 | 22535 ft | 403 kts | 261° |
| 2026-04-30 19:43 | 40.63230 | -4.47671 | 22936 ft | 406 kts | 261° |
| 2026-04-30 19:44 | 40.62103 | -4.54976 | 23668 ft | 409 kts | 246° |
| 2026-04-30 19:44 | 40.60684 | -4.58208 | 24014 ft | 409 kts | 233° |
| 2026-04-30 19:44 | 40.58988 | -4.61227 | 24376 ft | 410 kts | 232° |
| 2026-04-30 19:44 | 40.57265 | -4.64219 | 24742 ft | 411 kts | 232° |
| 2026-04-30 19:45 | 40.55537 | -4.67225 | 25094 ft | 413 kts | 232° |
| 2026-04-30 19:45 | 40.53806 | -4.70248 | 25459 ft | 414 kts | 232° |
| 2026-04-30 19:45 | 40.52070 | -4.73288 | 25820 ft | 417 kts | 232° |
| 2026-04-30 19:45 | 40.50329 | -4.76336 | 26190 ft | 418 kts | 232° |
| 2026-04-30 19:46 | 40.48580 | -4.79400 | 26593 ft | 420 kts | 232° |
| 2026-04-30 19:46 | 40.46822 | -4.82477 | 26986 ft | 422 kts | 232° |
| 2026-04-30 19:46 | 40.45057 | -4.85567 | 27415 ft | 424 kts | 232° |
| 2026-04-30 19:46 | 40.43279 | -4.88673 | 27861 ft | 426 kts | 231° |
| 2026-04-30 19:47 | 40.41490 | -4.91787 | 28279 ft | 429 kts | 231° |
| 2026-04-30 19:47 | 40.40299 | -4.93857 | 28585 ft | 430 kts | 231° |
| 2026-04-30 19:47 | 40.37885 | -4.98062 | 29189 ft | 433 kts | 232° |
| 2026-04-30 19:47 | 40.36071 | -5.01228 | 29607 ft | 435 kts | 231° |
| 2026-04-30 19:48 | 40.34245 | -5.04408 | 30065 ft | 438 kts | 231° |
| 2026-04-30 19:48 | 40.32406 | -5.07606 | 30459 ft | 440 kts | 231° |
| 2026-04-30 19:48 | 40.30580 | -5.10777 | 30812 ft | 443 kts | 231° |
| 2026-04-30 19:48 | 40.28718 | -5.14006 | 31165 ft | 446 kts | 231° |
| 2026-04-30 19:49 | 40.26839 | -5.17263 | 31526 ft | 449 kts | 231° |
| 2026-04-30 19:49 | 40.23042 | -5.23827 | 32239 ft | 455 kts | 231° |
| 2026-04-30 19:49 | 40.21130 | -5.27129 | 32582 ft | 457 kts | 231° |
| 2026-04-30 19:50 | 40.19203 | -5.30453 | 32926 ft | 460 kts | 231° |
| 2026-04-30 19:50 | 40.17265 | -5.33791 | 33265 ft | 462 kts | 231° |
| 2026-04-30 19:50 | 40.15316 | -5.37145 | 33595 ft | 465 kts | 231° |
| 2026-04-30 19:50 | 40.13360 | -5.40508 | 33922 ft | 467 kts | 231° |
| 2026-04-30 19:51 | 40.11386 | -5.43898 | 34210 ft | 469 kts | 231° |
| 2026-04-30 19:51 | 40.09401 | -5.47303 | 34500 ft | 471 kts | 231° |
| 2026-04-30 19:51 | 40.07417 | -5.50704 | 34891 ft | 470 kts | 231° |
| 2026-04-30 19:51 | 40.05441 | -5.54086 | 35326 ft | 468 kts | 231° |
| 2026-04-30 19:52 | 40.03468 | -5.57460 | 35735 ft | 467 kts | 231° |
| 2026-04-30 19:52 | 40.01499 | -5.60822 | 36115 ft | 466 kts | 231° |
| 2026-04-30 19:52 | 39.99533 | -5.64177 | 36493 ft | 465 kts | 231° |
| 2026-04-30 19:52 | 39.97566 | -5.67530 | 36883 ft | 465 kts | 231° |
| 2026-04-30 19:53 | 39.95604 | -5.70871 | 37281 ft | 464 kts | 231° |
| 2026-04-30 19:53 | 39.93641 | -5.74209 | 37659 ft | 463 kts | 231° |
| 2026-04-30 19:53 | 39.91685 | -5.77531 | 38044 ft | 462 kts | 231° |
| 2026-04-30 19:53 | 39.89731 | -5.80848 | 38411 ft | 461 kts | 231° |
| 2026-04-30 19:54 | 39.87781 | -5.84155 | 38762 ft | 460 kts | 231° |
| 2026-04-30 19:54 | 39.85828 | -5.87462 | 39023 ft | 460 kts | 231° |
| 2026-04-30 19:54 | 39.83879 | -5.90758 | 39260 ft | 460 kts | 231° |
| 2026-04-30 19:54 | 39.81926 | -5.94060 | 39511 ft | 460 kts | 231° |
| 2026-04-30 19:55 | 39.79999 | -5.97313 | 39745 ft | 461 kts | 231° |
| 2026-04-30 19:55 | 39.78043 | -6.00613 | 39963 ft | 461 kts | 232° |
| 2026-04-30 19:55 | 39.76084 | -6.03912 | 40196 ft | 461 kts | 232° |
| 2026-04-30 19:55 | 39.74128 | -6.07204 | 40409 ft | 461 kts | 232° |
| 2026-04-30 19:56 | 39.72166 | -6.10503 | 40613 ft | 461 kts | 232° |
| 2026-04-30 19:56 | 39.70203 | -6.13801 | 40820 ft | 462 kts | 232° |
| 2026-04-30 19:56 | 39.68236 | -6.17098 | 41000 ft | 462 kts | 232° |
| 2026-04-30 19:56 | 39.66262 | -6.20407 | 41079 ft | 466 kts | 232° |
| 2026-04-30 19:57 | 39.62257 | -6.27111 | 41070 ft | 474 kts | 232° |
| 2026-04-30 19:57 | 39.58192 | -6.33899 | 41084 ft | 479 kts | 232° |
| 2026-04-30 19:58 | 39.54099 | -6.40729 | 41081 ft | 481 kts | 232° |
| 2026-04-30 19:58 | 39.50570 | -6.48085 | 41080 ft | 482 kts | 242° |
| 2026-04-30 19:59 | 39.48072 | -6.54531 | 41073 ft | 482 kts | 243° |
| 2026-04-30 20:00 | 39.43693 | -6.66257 | 41069 ft | 482 kts | 243° |
| 2026-04-30 20:00 | 39.40727 | -6.74029 | 41083 ft | 482 kts | 243° |
| 2026-04-30 20:01 | 39.36233 | -6.85660 | 41092 ft | 482 kts | 243° |
| 2026-04-30 20:01 | 39.33228 | -6.93401 | 41079 ft | 482 kts | 243° |
| 2026-04-30 20:02 | 39.28717 | -7.04997 | 41086 ft | 481 kts | 243° |
| 2026-04-30 20:03 | 39.24219 | -7.16518 | 41079 ft | 481 kts | 243° |
| 2026-04-30 20:03 | 39.20950 | -7.24034 | 41088 ft | 481 kts | 236° |
| 2026-04-30 20:04 | 39.17167 | -7.31143 | 41086 ft | 481 kts | 234° |
| 2026-04-30 20:05 | 39.11365 | -7.41678 | 41088 ft | 481 kts | 234° |
| 2026-04-30 20:05 | 39.05557 | -7.52203 | 41089 ft | 481 kts | 234° |
| 2026-04-30 20:06 | 39.01687 | -7.59217 | 41091 ft | 480 kts | 234° |
| 2026-04-30 20:06 | 38.97818 | -7.66217 | 41096 ft | 480 kts | 234° |
| 2026-04-30 20:07 | 38.93948 | -7.73203 | 41094 ft | 480 kts | 235° |
| 2026-04-30 20:08 | 38.88159 | -7.83624 | 41101 ft | 479 kts | 235° |
| 2026-04-30 20:08 | 38.84283 | -7.90582 | 41102 ft | 479 kts | 235° |
| 2026-04-30 20:09 | 38.80404 | -7.97529 | 41105 ft | 479 kts | 235° |
| 2026-04-30 20:09 | 38.74581 | -8.07933 | 41112 ft | 479 kts | 235° |
| 2026-04-30 20:10 | 38.68747 | -8.18322 | 41112 ft | 478 kts | 235° |
| 2026-04-30 20:11 | 38.62914 | -8.28677 | 41117 ft | 478 kts | 235° |
| 2026-04-30 20:11 | 38.59025 | -8.35562 | 41120 ft | 478 kts | 235° |
| 2026-04-30 20:12 | 38.53183 | -8.45878 | 41120 ft | 477 kts | 235° |
| 2026-04-30 20:13 | 38.49287 | -8.52739 | 41120 ft | 477 kts | 236° |
| 2026-04-30 20:13 | 38.45390 | -8.59587 | 41134 ft | 477 kts | 236° |
| 2026-04-30 20:14 | 38.41493 | -8.66422 | 41136 ft | 476 kts | 236° |
| 2026-04-30 20:14 | 38.37594 | -8.73245 | 41135 ft | 476 kts | 236° |
| 2026-04-30 20:15 | 38.33720 | -8.80010 | 41118 ft | 475 kts | 236° |
| 2026-04-30 20:15 | 38.29826 | -8.86798 | 41135 ft | 475 kts | 236° |
| 2026-04-30 20:16 | 38.25928 | -8.93578 | 41128 ft | 474 kts | 236° |
| 2026-04-30 20:16 | 38.22030 | -9.00343 | 41131 ft | 474 kts | 236° |
| 2026-04-30 20:17 | 38.18131 | -9.07096 | 41136 ft | 473 kts | 236° |
| 2026-04-30 20:17 | 38.14231 | -9.13836 | 41132 ft | 473 kts | 236° |
| 2026-04-30 20:18 | 38.10330 | -9.20565 | 41131 ft | 473 kts | 236° |
| 2026-04-30 20:18 | 38.06429 | -9.27280 | 41134 ft | 472 kts | 236° |
| 2026-04-30 20:19 | 38.02526 | -9.33985 | 41136 ft | 472 kts | 236° |
| 2026-04-30 20:19 | 37.98621 | -9.40681 | 41138 ft | 472 kts | 235° |
| 2026-04-30 20:20 | 37.94711 | -9.47371 | 41136 ft | 472 kts | 235° |
| 2026-04-30 20:20 | 37.90798 | -9.54051 | 41135 ft | 472 kts | 235° |
| 2026-04-30 20:21 | 37.86880 | -9.60728 | 41141 ft | 472 kts | 235° |
| 2026-04-30 20:21 | 37.82961 | -9.67392 | 41143 ft | 472 kts | 235° |
| 2026-04-30 20:22 | 37.79037 | -9.74050 | 41138 ft | 472 kts | 235° |
| 2026-04-30 20:22 | 37.75110 | -9.80702 | 41142 ft | 472 kts | 235° |
| 2026-04-30 20:23 | 37.71180 | -9.87345 | 41142 ft | 472 kts | 235° |
| 2026-04-30 20:23 | 37.67247 | -9.93980 | 41140 ft | 472 kts | 235° |
| 2026-04-30 20:24 | 37.63308 | -10.00610 | 41141 ft | 472 kts | 235° |
| 2026-04-30 20:24 | 37.59394 | -10.07187 | 41140 ft | 472 kts | 235° |
| 2026-04-30 20:25 | 37.53479 | -10.17099 | 41141 ft | 472 kts | 235° |
| 2026-04-30 20:26 | 37.47554 | -10.27000 | 41143 ft | 471 kts | 234° |
| 2026-04-30 20:26 | 37.41630 | -10.36870 | 41143 ft | 471 kts | 234° |
| 2026-04-30 20:27 | 37.33720 | -10.50002 | 41146 ft | 471 kts | 234° |
| 2026-04-30 20:28 | 37.25799 | -10.63102 | 41148 ft | 471 kts | 234° |
| 2026-04-30 20:30 | 37.15880 | -10.79432 | 41149 ft | 471 kts | 234° |
| 2026-04-30 20:31 | 37.03981 | -10.98918 | 41147 ft | 470 kts | 234° |
| 2026-04-30 20:32 | 36.94039 | -11.15113 | 41151 ft | 469 kts | 234° |
| 2026-04-30 20:33 | 36.88067 | -11.24804 | 41152 ft | 468 kts | 234° |
| 2026-04-30 20:34 | 36.82103 | -11.34453 | 41148 ft | 468 kts | 234° |
| 2026-04-30 20:35 | 36.76139 | -11.44076 | 41148 ft | 467 kts | 234° |
| 2026-04-30 20:35 | 36.70179 | -11.53664 | 41148 ft | 466 kts | 234° |
| 2026-04-30 20:36 | 36.66205 | -11.60043 | 41147 ft | 465 kts | 234° |
| 2026-04-30 20:37 | 36.60252 | -11.69574 | 41149 ft | 464 kts | 235° |
| 2026-04-30 20:37 | 36.56287 | -11.75907 | 41148 ft | 464 kts | 235° |
| 2026-04-30 20:38 | 36.52351 | -11.82184 | 41151 ft | 463 kts | 235° |
| 2026-04-30 20:38 | 36.48392 | -11.88485 | 41151 ft | 462 kts | 235° |
| 2026-04-30 20:39 | 36.42460 | -11.97904 | 41151 ft | 461 kts | 235° |
| 2026-04-30 20:40 | 36.36540 | -12.07276 | 41153 ft | 459 kts | 235° |
| 2026-04-30 20:40 | 36.32601 | -12.13500 | 41156 ft | 458 kts | 235° |
| 2026-04-30 20:41 | 36.26703 | -12.22795 | 41151 ft | 456 kts | 235° |
| 2026-04-30 20:41 | 36.22779 | -12.28967 | 41153 ft | 455 kts | 235° |
| 2026-04-30 20:42 | 36.18857 | -12.35123 | 41155 ft | 454 kts | 235° |
| 2026-04-30 20:43 | 36.12989 | -12.44315 | 41155 ft | 453 kts | 235° |
| 2026-04-30 20:43 | 36.09080 | -12.50424 | 41155 ft | 452 kts | 235° |
| 2026-04-30 20:44 | 36.03104 | -12.59445 | 41153 ft | 454 kts | 231° |
| 2026-04-30 20:45 | 35.94532 | -12.70815 | 41150 ft | 453 kts | 232° |
| 2026-04-30 20:45 | 35.90274 | -12.76527 | 41148 ft | 452 kts | 232° |
| 2026-04-30 20:46 | 35.81768 | -12.87939 | 41152 ft | 451 kts | 232° |
| 2026-04-30 20:47 | 35.76117 | -12.95503 | 41153 ft | 451 kts | 232° |
| 2026-04-30 20:48 | 35.69748 | -13.04009 | 41147 ft | 450 kts | 232° |
| 2026-04-30 20:48 | 35.65498 | -13.09672 | 41151 ft | 450 kts | 232° |
| 2026-04-30 20:49 | 35.61248 | -13.15326 | 41149 ft | 450 kts | 232° |
| 2026-04-30 20:50 | 35.54869 | -13.23795 | 41149 ft | 450 kts | 232° |
| 2026-04-30 20:50 | 35.50616 | -13.29430 | 41150 ft | 450 kts | 232° |
| 2026-04-30 20:51 | 35.46365 | -13.35052 | 41150 ft | 449 kts | 232° |
| 2026-04-30 20:51 | 35.39980 | -13.43480 | 41146 ft | 449 kts | 232° |
| 2026-04-30 20:52 | 35.35723 | -13.49086 | 41149 ft | 449 kts | 232° |
| 2026-04-30 20:53 | 35.29331 | -13.57488 | 41147 ft | 449 kts | 232° |
| 2026-04-30 20:53 | 35.25096 | -13.63043 | 41147 ft | 449 kts | 232° |
| 2026-04-30 20:54 | 35.18696 | -13.71420 | 41147 ft | 449 kts | 232° |
| 2026-04-30 20:55 | 35.12295 | -13.79776 | 41147 ft | 449 kts | 232° |
| 2026-04-30 20:55 | 35.08022 | -13.85344 | 41145 ft | 449 kts | 232° |
| 2026-04-30 20:56 | 35.01602 | -13.93693 | 41143 ft | 449 kts | 232° |
| 2026-04-30 20:57 | 34.95183 | -14.02020 | 41141 ft | 449 kts | 231° |
| 2026-04-30 20:57 | 34.90899 | -14.07565 | 41144 ft | 449 kts | 231° |
| 2026-04-30 20:58 | 34.84469 | -14.15872 | 41147 ft | 449 kts | 231° |
| 2026-04-30 20:58 | 34.80179 | -14.21403 | 41148 ft | 449 kts | 231° |
| 2026-04-30 20:59 | 34.73737 | -14.29692 | 41144 ft | 449 kts | 231° |
| 2026-04-30 21:00 | 34.65173 | -14.40680 | 41137 ft | 449 kts | 231° |
| 2026-04-30 21:01 | 34.58725 | -14.48928 | 41141 ft | 449 kts | 231° |
| 2026-04-30 21:02 | 34.52274 | -14.57162 | 41146 ft | 449 kts | 231° |
| 2026-04-30 21:02 | 34.47971 | -14.62643 | 41142 ft | 448 kts | 231° |
| 2026-04-30 21:03 | 34.43670 | -14.68113 | 41145 ft | 448 kts | 231° |
| 2026-04-30 21:03 | 34.39370 | -14.73572 | 41140 ft | 448 kts | 231° |
| 2026-04-30 21:04 | 34.35066 | -14.79029 | 41139 ft | 448 kts | 231° |
| 2026-04-30 21:04 | 34.28609 | -14.87198 | 41141 ft | 447 kts | 231° |
| 2026-04-30 21:05 | 34.24306 | -14.92631 | 41141 ft | 447 kts | 231° |
| 2026-04-30 21:05 | 34.20003 | -14.98049 | 41141 ft | 447 kts | 231° |
| 2026-04-30 21:06 | 34.15680 | -15.03453 | 41140 ft | 447 kts | 231° |
| 2026-04-30 21:06 | 34.11367 | -15.08854 | 41137 ft | 447 kts | 231° |
| 2026-04-30 21:07 | 34.07081 | -15.14226 | 41140 ft | 447 kts | 231° |
| 2026-04-30 21:07 | 34.02763 | -15.19618 | 41232 ft | 446 kts | 230° |
| 2026-04-30 21:08 | 33.98466 | -15.24996 | 41386 ft | 445 kts | 231° |
| 2026-04-30 21:08 | 33.94191 | -15.30385 | 41559 ft | 445 kts | 231° |
| 2026-04-30 21:09 | 33.89864 | -15.35705 | 41660 ft | 445 kts | 229° |
| 2026-04-30 21:09 | 33.85530 | -15.41053 | 41697 ft | 446 kts | 229° |
| 2026-04-30 21:10 | 33.81225 | -15.46446 | 41692 ft | 448 kts | 230° |
| 2026-04-30 21:10 | 33.76907 | -15.51853 | 41658 ft | 445 kts | 231° |
| 2026-04-30 21:11 | 33.74784 | -15.54504 | 41176 ft | 439 kts | 231° |
| 2026-04-30 21:11 | 33.72670 | -15.57138 | 40506 ft | 437 kts | 231° |
| 2026-04-30 21:11 | 33.70562 | -15.59761 | 39862 ft | 436 kts | 231° |
| 2026-04-30 21:11 | 33.68457 | -15.62372 | 39216 ft | 435 kts | 231° |
| 2026-04-30 21:12 | 33.66354 | -15.64975 | 38526 ft | 433 kts | 231° |
| 2026-04-30 21:12 | 33.64257 | -15.67567 | 37716 ft | 433 kts | 231° |
| 2026-04-30 21:12 | 33.62153 | -15.70166 | 36860 ft | 435 kts | 231° |
| 2026-04-30 21:12 | 33.60040 | -15.72774 | 36002 ft | 436 kts | 231° |
| 2026-04-30 21:13 | 33.57919 | -15.75389 | 35153 ft | 438 kts | 231° |
| 2026-04-30 21:13 | 33.55785 | -15.78019 | 34288 ft | 441 kts | 231° |
| 2026-04-30 21:13 | 33.53622 | -15.80635 | 33287 ft | 444 kts | 229° |
| 2026-04-30 21:13 | 33.51400 | -15.83228 | 32239 ft | 448 kts | 229° |
| 2026-04-30 21:14 | 33.49153 | -15.85840 | 31215 ft | 451 kts | 229° |
| 2026-04-30 21:14 | 33.46900 | -15.88466 | 30299 ft | 452 kts | 229° |
| 2026-04-30 21:14 | 33.44651 | -15.91091 | 29352 ft | 451 kts | 229° |
| 2026-04-30 21:14 | 33.42409 | -15.93706 | 28575 ft | 447 kts | 229° |
| 2026-04-30 21:15 | 33.40210 | -15.96268 | 28199 ft | 435 kts | 229° |
| 2026-04-30 21:15 | 33.38081 | -15.98748 | 27976 ft | 421 kts | 229° |
| 2026-04-30 21:15 | 33.35985 | -16.01181 | 27136 ft | 421 kts | 229° |
| 2026-04-30 21:15 | 33.33875 | -16.03636 | 26157 ft | 425 kts | 229° |
| 2026-04-30 21:16 | 33.31755 | -16.06110 | 25316 ft | 426 kts | 229° |
| 2026-04-30 21:16 | 33.29637 | -16.08580 | 24545 ft | 425 kts | 228° |
| 2026-04-30 21:16 | 33.27523 | -16.11037 | 23817 ft | 423 kts | 228° |
| 2026-04-30 21:16 | 33.25422 | -16.13478 | 23009 ft | 420 kts | 228° |
| 2026-04-30 21:17 | 33.23341 | -16.15898 | 22223 ft | 416 kts | 228° |
| 2026-04-30 21:17 | 33.21280 | -16.18292 | 21503 ft | 411 kts | 227° |
| 2026-04-30 21:17 | 33.19255 | -16.20637 | 21149 ft | 398 kts | 227° |
| 2026-04-30 21:17 | 33.17302 | -16.22900 | 20838 ft | 385 kts | 227° |
| 2026-04-30 21:18 | 33.15408 | -16.25095 | 20563 ft | 373 kts | 227° |
| 2026-04-30 21:18 | 33.13580 | -16.27212 | 20304 ft | 361 kts | 227° |
| 2026-04-30 21:18 | 33.11808 | -16.29263 | 20061 ft | 349 kts | 227° |
| 2026-04-30 21:18 | 33.10091 | -16.31249 | 19824 ft | 338 kts | 227° |
| 2026-04-30 21:19 | 33.08424 | -16.33169 | 19609 ft | 328 kts | 227° |
| 2026-04-30 21:19 | 33.06813 | -16.35036 | 19421 ft | 318 kts | 228° |
| 2026-04-30 21:19 | 33.05252 | -16.36853 | 19163 ft | 310 kts | 228° |
| 2026-04-30 21:19 | 33.03714 | -16.38642 | 18797 ft | 307 kts | 227° |
| 2026-04-30 21:20 | 33.02200 | -16.40380 | 18412 ft | 305 kts | 226° |
| 2026-04-30 21:20 | 33.00671 | -16.42125 | 17976 ft | 303 kts | 226° |
| 2026-04-30 21:20 | 32.99155 | -16.43861 | 17510 ft | 302 kts | 226° |
| 2026-04-30 21:20 | 32.97649 | -16.45586 | 17116 ft | 299 kts | 226° |
| 2026-04-30 21:21 | 32.96150 | -16.47313 | 16498 ft | 302 kts | 227° |
| 2026-04-30 21:21 | 32.94634 | -16.49085 | 15758 ft | 310 kts | 226° |
| 2026-04-30 21:21 | 32.91472 | -16.52728 | 14336 ft | 322 kts | 224° |
| 2026-04-30 21:22 | 32.89791 | -16.54519 | 13608 ft | 326 kts | 223° |
| 2026-04-30 21:22 | 32.84637 | -16.59972 | 11350 ft | 333 kts | 224° |
| 2026-04-30 21:23 | 32.82973 | -16.61896 | 10620 ft | 334 kts | 226° |
| 2026-04-30 21:23 | 32.81362 | -16.63881 | 9906 ft | 333 kts | 231° |
| 2026-04-30 21:23 | 32.80343 | -16.69020 | 8623 ft | 327 kts | 281° |
| 2026-04-30 21:24 | 32.81344 | -16.71384 | 8359 ft | 320 kts | 308° |
| 2026-04-30 21:24 | 32.83149 | -16.72869 | 8107 ft | 318 kts | 337° |
| 2026-04-30 21:24 | 32.85325 | -16.73122 | 7848 ft | 317 kts | 5° |
| 2026-04-30 21:24 | 32.87364 | -16.72193 | 7604 ft | 313 kts | 28° |
| 2026-04-30 21:25 | 32.90676 | -16.69041 | 7032 ft | 302 kts | 48° |
| 2026-04-30 21:25 | 32.91951 | -16.67040 | 6524 ft | 305 kts | 51° |
| 2026-04-30 21:25 | 32.93344 | -16.65132 | 5960 ft | 307 kts | 44° |
| 2026-04-30 21:26 | 32.96584 | -16.61816 | 4879 ft | 307 kts | 36° |
| 2026-04-30 21:26 | 32.98214 | -16.60178 | 4344 ft | 306 kts | 47° |
| 2026-04-30 21:27 | 32.99132 | -16.55707 | 3998 ft | 272 kts | 111° |
| 2026-04-30 21:27 | 32.98118 | -16.53960 | 3984 ft | 248 kts | 145° |
| 2026-04-30 21:27 | 32.96623 | -16.53177 | 4001 ft | 231 kts | 170° |
| 2026-04-30 21:28 | 32.93180 | -16.52559 | 3996 ft | 259 kts | 181° |
| 2026-04-30 21:28 | 32.91460 | -16.53054 | 3997 ft | 255 kts | 211° |
| 2026-04-30 21:28 | 32.88714 | -16.55654 | 3983 ft | 254 kts | 222° |
| 2026-04-30 21:29 | 32.87387 | -16.57042 | 3918 ft | 254 kts | 222° |
| 2026-04-30 21:29 | 32.83207 | -16.61692 | 3734 ft | 286 kts | 225° |
| 2026-04-30 21:30 | 32.80470 | -16.64945 | 2934 ft | 273 kts | 224° |
| 2026-04-30 21:31 | 32.76616 | -16.69531 | 1865 ft | 239 kts | 225° |
| 2026-04-30 21:31 | 32.74543 | -16.71965 | 1300 ft | 187 kts | 223° |
| 2026-04-30 21:32 | 32.72725 | -16.74044 | 839 ft | 166 kts | 223° |
| 2026-04-30 21:32 | 32.71948 | -16.74938 | 634 ft | 147 kts | 223° |
| 2026-04-30 21:32 | 32.71253 | -16.75743 | 423 ft | 132 kts | 223° |
| 2026-04-30 21:32 | 32.70624 | -16.76470 | 233 ft | 121 kts | 222° |
| 2026-04-30 21:33 | 32.70039 | -16.77153 | 199 ft | 103 kts | 224° |
| 2026-04-30 21:33 | 32.69452 | -16.77835 | 173 ft | 27 kts | 223° |
| 2026-04-30 21:33 | 32.69337 | -16.77963 | 169 ft | 10 kts | 205° |
| 2026-04-30 21:34 | 32.69301 | -16.77943 | 169 ft | 9 kts | 127° |
| 2026-04-30 21:34 | 32.69332 | -16.77803 | 175 ft | 24 kts | 47° |
| 2026-04-30 21:34 | 32.69408 | -16.77711 | 175 ft | 13 kts | 46° |
| 2026-04-30 21:35 | 32.69469 | -16.77637 | 178 ft | 9 kts | 45° |
| 2026-04-30 21:35 | 32.69520 | -16.77576 | 180 ft | 11 kts | 47° |
| 2026-04-30 21:35 | 32.69527 | -16.77519 | 180 ft | 7 kts | 128° |
| 2026-04-30 21:35 | 32.69495 | -16.77482 | 181 ft | 4 kts | 137° |
| 2026-04-30 21:36 | 32.69490 | -16.77477 | 181 ft | 0 kts | 137° |